createdAt,value
2022-10-18T00:01:59.051Z,85.42
2022-10-18T00:04:28.874Z,85.43
2022-10-18T00:06:58.599Z,85.43
2022-10-18T00:09:31.233Z,85.67
2022-10-18T00:12:01.927Z,85.36
2022-10-18T00:14:32.192Z,85.14
2022-10-18T00:17:02.012Z,85.05
2022-10-18T00:19:32.033Z,85.20
2022-10-18T00:22:10.412Z,85.17
2022-10-18T00:24:40.693Z,85.72
2022-10-18T00:27:10.483Z,85.60
2022-10-18T00:29:40.431Z,85.94
2022-10-18T00:32:10.304Z,86.04
2022-10-18T00:34:42.865Z,86.05
2022-10-18T00:37:12.786Z,85.69
2022-10-18T00:39:43.002Z,86.36
2022-10-18T00:42:20.672Z,86.15
2022-10-18T00:44:53.661Z,86.79
2022-10-18T00:47:23.777Z,86.71
2022-10-18T00:49:59.123Z,86.56
2022-10-18T00:52:43.820Z,86.47
2022-10-18T00:55:14.581Z,86.83
2022-10-18T00:57:45.635Z,86.85
2022-10-18T01:00:16.361Z,86.73
2022-10-18T01:02:47.882Z,87.11
2022-10-18T01:05:19.925Z,87.10
2022-10-18T01:08:06.929Z,87.05
2022-10-18T01:10:53.036Z,85.84
2022-10-18T01:14:00.231Z,86.21
2022-10-18T01:16:45.081Z,86.69
2022-10-18T01:19:21.501Z,87.16
2022-10-18T01:21:51.060Z,84.24
2022-10-18T01:24:42.050Z,86.44
2022-10-18T01:27:39.113Z,86.97
2022-10-18T01:30:40.018Z,87.08
2022-10-18T01:33:27.913Z,87.16
2022-10-18T01:36:36.041Z,87.73
2022-10-18T01:39:10.850Z,86.93
2022-10-18T01:41:42.841Z,87.14
2022-10-18T01:44:22.305Z,87.30
2022-10-18T01:46:55.625Z,87.74
2022-10-18T01:49:26.885Z,87.66
2022-10-18T01:51:57.005Z,87.90
2022-10-18T01:54:37.232Z,87.68
2022-10-18T01:57:34.562Z,87.65
2022-10-18T02:00:20.649Z,87.32
2022-10-18T02:03:06.638Z,88.00
2022-10-18T02:05:52.446Z,87.97
2022-10-18T02:08:32.597Z,88.18
2022-10-18T02:11:04.167Z,87.99
2022-10-18T02:13:59.228Z,87.95
2022-10-18T02:16:40.585Z,88.24
2022-10-18T02:19:30.199Z,87.87
2022-10-18T02:22:01.372Z,87.62
2022-10-18T02:24:40.062Z,87.33
2022-10-18T02:27:10.701Z,88.21
2022-10-18T02:29:42.277Z,88.05
2022-10-18T02:32:31.242Z,87.60
2022-10-18T02:35:10.018Z,88.38
2022-10-18T02:37:41.516Z,88.59
2022-10-18T02:40:12.842Z,88.67
2022-10-18T02:42:49.088Z,88.67
2022-10-18T02:45:19.748Z,89.09
2022-10-18T02:47:49.675Z,89.13
2022-10-18T02:50:19.585Z,89.17
2022-10-18T02:52:49.259Z,89.87
2022-10-18T02:55:19.975Z,90.10
2022-10-18T02:57:50.081Z,89.95
2022-10-18T03:00:19.789Z,90.13
2022-10-18T03:02:51.534Z,89.90
2022-10-18T03:05:21.607Z,89.79
2022-10-18T03:07:51.286Z,89.91
2022-10-18T03:10:20.950Z,89.84
2022-10-18T03:12:50.631Z,89.87
2022-10-18T03:15:20.318Z,89.62
2022-10-18T03:17:49.967Z,89.85
2022-10-18T03:20:20.861Z,89.96
2022-10-18T03:22:50.570Z,90.04
2022-10-18T03:25:20.236Z,89.79
2022-10-18T03:27:49.931Z,89.65
2022-10-18T03:30:19.963Z,90.01
2022-10-18T03:32:50.582Z,90.25
2022-10-18T03:35:20.780Z,90.60
2022-10-18T03:37:50.884Z,90.87
2022-10-18T03:40:21.575Z,90.83
2022-10-18T03:42:51.272Z,90.42
2022-10-18T03:45:21.089Z,90.58
2022-10-18T03:47:51.145Z,90.30
2022-10-18T03:50:20.811Z,90.45
2022-10-18T03:52:50.443Z,90.52
2022-10-18T03:55:20.121Z,90.47
2022-10-18T03:57:49.832Z,90.52
2022-10-18T04:00:19.697Z,90.49
2022-10-18T04:02:52.060Z,90.78
2022-10-18T04:05:33.505Z,89.19
2022-10-18T04:08:03.897Z,91.14
2022-10-18T04:10:33.573Z,91.18
2022-10-18T04:13:03.439Z,90.81
2022-10-18T04:15:33.100Z,90.93
2022-10-18T04:18:03.353Z,91.00
2022-10-18T04:20:33.041Z,90.28
2022-10-18T04:23:02.728Z,89.97
2022-10-18T04:25:32.478Z,90.00
2022-10-18T04:28:02.337Z,89.88
2022-10-18T04:30:32.066Z,90.41
2022-10-18T04:33:01.825Z,90.20
2022-10-18T04:35:31.511Z,90.17
2022-10-18T04:38:01.594Z,90.13
2022-10-18T04:40:31.298Z,90.01
2022-10-18T04:43:00.955Z,90.01
2022-10-18T04:45:30.658Z,90.02
2022-10-18T04:48:00.665Z,90.06
2022-10-18T04:50:30.686Z,90.14
2022-10-18T04:53:00.363Z,89.86
2022-10-18T04:55:30.055Z,89.80
2022-10-18T04:57:59.956Z,89.83
2022-10-18T05:00:29.632Z,90.07
2022-10-18T05:02:59.915Z,90.19
2022-10-18T05:05:49.619Z,90.57
2022-10-18T05:08:19.924Z,90.72
2022-10-18T05:10:49.869Z,91.16
2022-10-18T05:13:19.541Z,91.07
2022-10-18T05:15:49.315Z,90.57
2022-10-18T05:18:19.237Z,90.69
2022-10-18T05:20:49.387Z,90.44
2022-10-18T05:23:19.121Z,90.75
2022-10-18T05:25:48.935Z,90.96
2022-10-18T05:28:38.683Z,90.71
2022-10-18T05:31:11.303Z,90.80
2022-10-18T05:33:41.474Z,90.91
2022-10-18T05:36:11.861Z,90.97
2022-10-18T05:38:46.573Z,90.71
2022-10-18T05:41:17.159Z,90.52
2022-10-18T05:43:46.872Z,90.79
2022-10-18T05:46:16.552Z,90.58
2022-10-18T05:48:50.657Z,90.67
2022-10-18T05:51:21.131Z,90.72
2022-10-18T05:53:51.065Z,90.67
2022-10-18T05:56:20.744Z,91.23
2022-10-18T05:58:53.857Z,91.22
2022-10-18T06:01:23.826Z,91.24
2022-10-18T06:03:53.887Z,91.58
2022-10-18T06:06:23.855Z,91.66
2022-10-18T06:08:53.518Z,91.91
2022-10-18T06:11:23.227Z,91.94
2022-10-18T06:13:54.484Z,91.98
2022-10-18T06:16:29.832Z,92.30
2022-10-18T06:19:02.198Z,92.41
2022-10-18T06:21:31.899Z,92.43
2022-10-18T06:24:01.676Z,92.48
2022-10-18T06:26:31.419Z,92.43
2022-10-18T06:29:01.707Z,92.45
2022-10-18T06:31:31.514Z,92.50
2022-10-18T06:34:02.064Z,92.75
2022-10-18T06:36:32.270Z,92.89
2022-10-18T06:39:02.366Z,92.82
2022-10-18T06:41:38.793Z,93.02
2022-10-18T06:44:22.595Z,92.98
2022-10-18T06:46:54.533Z,93.12
2022-10-18T06:49:25.041Z,93.21
2022-10-18T06:51:56.068Z,93.31
2022-10-18T06:54:26.077Z,93.09
2022-10-18T06:56:59.912Z,93.00
2022-10-18T06:59:31.388Z,93.17
2022-10-18T07:02:01.635Z,93.12
2022-10-18T07:04:31.775Z,93.09
2022-10-18T07:07:01.434Z,92.91
2022-10-18T07:09:31.127Z,92.97
2022-10-18T07:12:00.814Z,93.01
2022-10-18T07:14:30.738Z,93.08
2022-10-18T07:17:01.794Z,92.69
2022-10-18T07:19:31.800Z,92.78
2022-10-18T07:22:01.500Z,92.72
2022-10-18T07:24:31.182Z,92.73
2022-10-18T07:27:00.844Z,92.86
2022-10-18T07:29:30.638Z,92.77
2022-10-18T07:32:00.274Z,92.67
2022-10-18T07:34:30.107Z,92.66
2022-10-18T07:37:00.533Z,92.68
2022-10-18T07:39:30.199Z,92.74
2022-10-18T07:41:59.974Z,92.83
2022-10-18T07:44:30.101Z,92.75
2022-10-18T07:47:00.977Z,92.71
2022-10-18T07:49:31.151Z,92.76
2022-10-18T07:52:00.823Z,92.71
2022-10-18T07:54:31.445Z,92.60
2022-10-18T07:57:01.099Z,92.40
2022-10-18T07:59:30.752Z,92.34
2022-10-18T08:02:00.582Z,92.46
2022-10-18T08:04:30.290Z,92.64
2022-10-18T08:06:59.937Z,92.53
2022-10-18T08:09:29.705Z,92.54
2022-10-18T08:11:59.519Z,92.35
2022-10-18T08:14:29.210Z,91.96
2022-10-18T08:16:58.919Z,91.86
2022-10-18T08:19:28.570Z,91.95
2022-10-18T08:21:58.611Z,91.92
2022-10-18T08:24:28.373Z,91.82
2022-10-18T08:26:58.433Z,91.91
2022-10-18T08:29:31.525Z,91.70
2022-10-18T08:32:02.012Z,91.70
2022-10-18T08:34:31.739Z,91.64
2022-10-18T08:37:01.510Z,91.66
2022-10-18T08:39:31.214Z,91.74
2022-10-18T08:42:15.388Z,91.32
2022-10-18T08:44:50.978Z,91.10
2022-10-18T08:47:20.641Z,90.06
2022-10-18T08:50:13.936Z,91.15
2022-10-18T08:52:59.614Z,91.46
2022-10-18T08:55:44.865Z,91.39
2022-10-18T08:58:24.757Z,91.39
2022-10-18T09:01:36.088Z,90.91
2022-10-18T09:04:19.723Z,91.50
2022-10-18T09:07:24.525Z,90.90
2022-10-18T09:10:15.808Z,91.22
2022-10-18T09:13:23.266Z,90.40
2022-10-18T09:16:09.492Z,90.55
2022-10-18T09:18:42.260Z,90.43
2022-10-18T09:21:23.790Z,90.28
2022-10-18T09:24:04.451Z,90.58
2022-10-18T09:26:59.059Z,90.77
2022-10-18T09:29:46.953Z,90.53
2022-10-18T09:32:38.036Z,90.66
2022-10-18T09:35:35.420Z,90.39
2022-10-18T09:38:10.973Z,90.24
2022-10-18T09:40:58.063Z,90.00
2022-10-18T09:43:57.306Z,89.91
2022-10-18T09:46:33.889Z,90.02
2022-10-18T09:49:16.667Z,89.68
2022-10-18T09:51:48.999Z,89.57
2022-10-18T09:54:22.264Z,89.52
2022-10-18T09:57:04.002Z,89.39
2022-10-18T09:59:48.262Z,89.25
2022-10-18T10:02:23.402Z,89.14
2022-10-18T10:04:58.005Z,88.38
2022-10-18T10:07:44.600Z,88.78
2022-10-18T10:10:31.368Z,88.04
2022-10-18T10:13:27.213Z,88.41
2022-10-18T10:16:01.531Z,88.03
2022-10-18T10:18:35.447Z,87.67
2022-10-18T10:21:15.044Z,87.60
2022-10-18T10:23:55.638Z,86.91
2022-10-18T10:26:32.577Z,86.19
2022-10-18T10:29:03.017Z,86.35
2022-10-18T10:31:34.699Z,86.04
2022-10-18T10:34:21.413Z,85.48
2022-10-18T10:36:56.574Z,85.73
2022-10-18T10:39:26.783Z,85.26
2022-10-18T10:42:01.879Z,85.26
2022-10-18T10:44:38.324Z,85.03
2022-10-18T10:47:08.295Z,84.83
2022-10-18T10:49:41.468Z,84.77
2022-10-18T10:52:28.559Z,84.02
2022-10-18T10:55:23.529Z,83.39
2022-10-18T10:57:52.378Z,82.92
2022-10-18T11:00:45.626Z,80.87
2022-10-18T11:03:34.993Z,77.79
2022-10-18T11:06:05.516Z,79.57
2022-10-18T11:08:41.995Z,80.25
2022-10-18T11:11:28.852Z,80.66
2022-10-18T11:14:24.579Z,81.02
2022-10-18T11:17:41.858Z,82.42
2022-10-18T11:20:17.150Z,81.18
2022-10-18T11:23:01.122Z,81.74
2022-10-18T11:25:46.056Z,81.94
2022-10-18T11:28:21.397Z,82.92
2022-10-18T11:30:51.084Z,83.20
2022-10-18T11:33:56.481Z,81.81
2022-10-18T11:36:36.566Z,82.59
2022-10-18T11:39:46.822Z,82.74
2022-10-18T11:42:41.250Z,82.53
2022-10-18T11:45:26.526Z,82.48
2022-10-18T11:48:03.466Z,80.99
2022-10-18T11:50:43.211Z,82.37
2022-10-18T11:53:35.974Z,82.04
2022-10-18T11:56:20.500Z,82.73
2022-10-18T11:59:12.202Z,82.22
2022-10-18T12:02:05.397Z,83.15
2022-10-18T12:04:48.957Z,82.39
2022-10-18T12:07:37.685Z,83.35
2022-10-18T12:10:10.670Z,81.37
2022-10-18T12:13:02.267Z,82.09
2022-10-18T12:15:35.067Z,79.65
2022-10-18T12:18:13.104Z,78.18
2022-10-18T12:20:55.381Z,76.76
2022-10-18T12:23:30.937Z,75.59
2022-10-18T12:26:09.603Z,77.62
2022-10-18T12:29:15.474Z,76.63
2022-10-18T12:31:52.806Z,76.24
2022-10-18T12:34:28.242Z,74.70
2022-10-18T12:40:08.986Z,68.12
2022-10-18T12:42:49.856Z,67.80
2022-10-18T12:45:36.011Z,66.60
2022-10-18T12:48:10.058Z,64.04
2022-10-18T12:50:45.505Z,66.60
2022-10-18T12:53:15.065Z,71.25
2022-10-18T12:55:47.364Z,71.67
2022-10-18T12:58:17.363Z,70.13
2022-10-18T13:00:48.545Z,67.93
2022-10-18T13:03:19.108Z,68.45
2022-10-18T13:05:59.987Z,70.79
2022-10-18T13:08:42.881Z,69.11
2022-10-18T13:11:12.698Z,70.76
2022-10-18T13:14:12.400Z,71.17
2022-10-18T13:17:13.761Z,69.61
2022-10-18T13:20:02.930Z,69.29
2022-10-18T13:23:10.056Z,71.02
2022-10-18T13:25:40.152Z,70.32
2022-10-18T13:28:37.707Z,70.85
2022-10-18T13:31:13.167Z,71.51
2022-10-18T13:33:44.032Z,71.46
2022-10-18T13:36:22.963Z,73.99
2022-10-18T13:38:59.239Z,72.32
2022-10-18T13:41:50.721Z,74.03
2022-10-18T13:44:41.412Z,73.81
2022-10-18T13:47:37.646Z,73.47
2022-10-18T13:50:18.913Z,71.75
2022-10-18T13:52:48.587Z,73.32
2022-10-18T13:55:46.491Z,72.51
2022-10-18T13:58:34.729Z,70.88
2022-10-18T14:01:16.152Z,71.82
2022-10-18T14:04:22.717Z,70.99
2022-10-18T14:06:59.917Z,69.09
2022-10-18T14:09:47.155Z,72.04
2022-10-18T14:12:42.735Z,71.18
2022-10-18T14:15:40.885Z,72.36
2022-10-18T14:18:15.970Z,70.76
2022-10-18T14:21:13.332Z,71.41
2022-10-18T14:23:46.124Z,70.38
2022-10-18T14:26:22.088Z,71.56
2022-10-18T14:29:16.505Z,71.31
2022-10-18T14:31:54.548Z,68.10
2022-10-18T14:34:24.651Z,70.14
2022-10-18T14:36:54.396Z,67.42
2022-10-18T14:39:29.624Z,68.51
2022-10-18T14:42:00.656Z,69.58
2022-10-18T14:44:33.022Z,69.86
2022-10-18T14:47:04.978Z,70.85
2022-10-18T14:49:34.872Z,70.61
2022-10-18T14:52:04.576Z,71.08
2022-10-18T14:54:37.998Z,73.96
2022-10-18T14:57:09.021Z,74.19
2022-10-18T14:59:54.135Z,72.94
2022-10-18T15:02:29.568Z,73.59
2022-10-18T15:05:11.151Z,73.92
2022-10-18T15:07:41.367Z,76.54
2022-10-18T15:10:21.322Z,78.00
2022-10-18T15:13:09.375Z,75.90
2022-10-18T15:15:41.541Z,77.05
2022-10-18T15:18:25.859Z,77.48
2022-10-18T15:21:24.286Z,78.70
2022-10-18T15:23:56.092Z,78.69
2022-10-18T15:26:32.032Z,79.12
2022-10-18T15:29:04.478Z,78.26
2022-10-18T15:31:39.386Z,79.60
2022-10-18T15:34:20.078Z,79.23
2022-10-18T15:36:51.619Z,80.21
2022-10-18T15:39:31.720Z,82.10
2022-10-18T15:42:04.304Z,81.64
2022-10-18T15:44:47.907Z,81.89
2022-10-18T15:47:24.670Z,82.70
2022-10-18T15:50:02.830Z,83.07
2022-10-18T15:52:50.704Z,83.63
2022-10-18T15:55:34.029Z,82.81
2022-10-18T15:58:12.874Z,82.98
2022-10-18T16:00:46.332Z,83.30
2022-10-18T16:03:18.078Z,82.65
2022-10-18T16:05:48.580Z,83.30
2022-10-18T16:08:27.553Z,83.95
2022-10-18T16:10:59.809Z,84.43
2022-10-18T16:13:29.837Z,84.53
2022-10-18T16:16:01.323Z,86.49
2022-10-18T16:18:31.256Z,86.22
2022-10-18T16:21:03.046Z,86.61
2022-10-18T16:23:32.887Z,88.04
2022-10-18T16:26:02.540Z,87.91
2022-10-18T16:28:32.971Z,88.37
2022-10-18T16:31:05.189Z,87.55
2022-10-18T16:33:36.865Z,87.33
2022-10-18T16:36:07.108Z,87.97
2022-10-18T16:38:39.420Z,87.65
2022-10-18T16:41:10.771Z,88.21
2022-10-18T16:43:41.376Z,86.35
2022-10-18T16:46:17.942Z,88.06
2022-10-18T16:48:50.038Z,88.83
2022-10-18T16:51:20.016Z,87.41
2022-10-18T16:53:50.619Z,88.49
2022-10-18T16:56:23.460Z,87.20
2022-10-18T16:58:54.259Z,87.96
2022-10-18T17:01:25.913Z,87.43
2022-10-18T17:03:56.475Z,87.58
2022-10-18T17:06:28.725Z,87.10
2022-10-18T17:08:59.992Z,87.06
2022-10-18T17:11:30.310Z,86.44
2022-10-18T17:14:00.195Z,85.97
2022-10-18T17:16:35.530Z,87.87
2022-10-18T17:19:08.449Z,88.08
2022-10-18T17:21:42.456Z,85.62
2022-10-18T17:24:13.034Z,87.75
2022-10-18T17:26:43.241Z,85.08
2022-10-18T17:29:12.972Z,87.56
2022-10-18T17:31:42.693Z,86.01
2022-10-18T17:34:12.363Z,85.29
2022-10-18T17:36:42.274Z,87.59
2022-10-18T17:39:12.682Z,88.07
2022-10-18T17:41:42.359Z,86.71
2022-10-18T17:44:12.059Z,85.79
2022-10-18T17:46:43.209Z,85.28
2022-10-18T17:49:15.403Z,84.49
2022-10-18T17:51:46.570Z,85.47
2022-10-18T17:54:16.709Z,85.68
2022-10-18T17:56:46.899Z,85.24
2022-10-18T17:59:18.124Z,85.01
2022-10-18T18:04:18.220Z,87.22
2022-10-18T18:06:50.128Z,87.48
2022-10-18T18:09:21.043Z,89.52
2022-10-18T18:11:52.578Z,88.72
2022-10-18T18:14:22.807Z,88.75
2022-10-18T18:16:52.636Z,87.88
2022-10-18T18:19:22.561Z,87.42
2022-10-18T18:21:54.749Z,86.97
2022-10-18T18:24:25.925Z,86.77
2022-10-18T18:26:57.336Z,86.14
2022-10-18T18:29:31.817Z,87.36
2022-10-18T18:32:02.116Z,87.25
2022-10-18T18:34:32.045Z,86.90
2022-10-18T18:37:01.753Z,86.81
2022-10-18T18:39:31.502Z,86.39
2022-10-18T18:42:02.818Z,88.09
2022-10-18T18:44:33.427Z,87.73
2022-10-18T18:47:03.498Z,86.85
2022-10-18T18:49:34.033Z,85.86
2022-10-18T18:52:04.544Z,86.69
2022-10-18T18:54:37.088Z,85.92
2022-10-18T18:57:08.292Z,86.15
2022-10-18T18:59:38.166Z,86.23
2022-10-18T19:02:08.238Z,87.00
2022-10-18T19:04:38.079Z,87.64
2022-10-18T19:07:07.777Z,86.76
2022-10-18T19:09:39.716Z,86.60
2022-10-18T19:12:10.191Z,86.16
2022-10-18T19:14:39.900Z,86.23
2022-10-18T19:17:10.588Z,86.70
2022-10-18T19:19:41.994Z,87.30
2022-10-18T19:22:12.324Z,86.52
2022-10-18T19:24:41.984Z,86.30
2022-10-18T19:27:15.109Z,86.81
2022-10-18T19:29:47.185Z,86.92
2022-10-18T19:32:19.711Z,86.54
2022-10-18T19:34:49.904Z,87.24
2022-10-18T19:37:20.140Z,87.06
2022-10-18T19:39:50.045Z,86.72
2022-10-18T19:42:24.114Z,87.32
2022-10-18T19:44:56.302Z,88.49
2022-10-18T19:47:25.963Z,86.95
2022-10-18T19:49:55.613Z,87.76
2022-10-18T19:52:25.728Z,88.48
2022-10-18T19:54:55.393Z,88.77
2022-10-18T19:57:25.053Z,88.47
2022-10-18T19:59:56.598Z,88.65
2022-10-18T20:02:27.097Z,87.25
2022-10-18T20:04:56.791Z,87.29
2022-10-18T20:07:26.793Z,88.59
2022-10-18T20:09:56.469Z,88.01
2022-10-18T20:12:26.225Z,87.34
2022-10-18T20:14:56.176Z,88.00
2022-10-18T20:17:25.859Z,86.34
2022-10-18T20:19:55.926Z,87.60
2022-10-18T20:22:25.696Z,87.42
2022-10-18T20:24:57.170Z,86.78
2022-10-18T20:27:27.098Z,87.46
2022-10-18T20:29:56.791Z,87.88
2022-10-18T20:32:26.483Z,88.26
2022-10-18T20:34:56.146Z,88.72
2022-10-18T20:37:25.884Z,88.31
2022-10-18T20:39:55.559Z,88.84
2022-10-18T20:42:25.224Z,88.85
2022-10-18T20:44:55.861Z,88.03
2022-10-18T20:47:25.767Z,88.78
2022-10-18T20:49:55.474Z,88.71
2022-10-18T20:52:25.448Z,89.11
2022-10-18T20:54:55.192Z,89.58
2022-10-18T20:57:26.003Z,89.47
2022-10-18T20:59:56.405Z,89.95
2022-10-18T21:02:26.084Z,89.88
2022-10-18T21:04:55.778Z,89.70
2022-10-18T21:07:25.574Z,89.53
2022-10-18T21:09:55.254Z,90.12
2022-10-18T21:12:27.534Z,90.43
2022-10-18T21:14:59.587Z,90.22
2022-10-18T21:17:29.257Z,90.27
2022-10-18T21:19:59.112Z,90.50
2022-10-18T21:22:28.949Z,90.86
2022-10-18T21:24:58.736Z,90.90
2022-10-18T21:27:28.420Z,91.23
2022-10-18T21:29:58.080Z,91.55
2022-10-18T21:32:27.851Z,91.57
2022-10-18T21:34:57.540Z,91.83
2022-10-18T21:37:27.277Z,92.06
2022-10-18T21:39:57.133Z,92.42
2022-10-18T21:42:27.408Z,92.68
2022-10-18T21:44:57.146Z,92.96
2022-10-18T21:47:27.453Z,92.91
2022-10-18T21:49:57.197Z,93.20
2022-10-18T21:52:26.940Z,93.07
2022-10-18T21:54:56.619Z,93.39
2022-10-18T21:57:26.676Z,93.16
2022-10-18T21:59:56.388Z,93.55
2022-10-18T22:02:26.104Z,93.82
2022-10-18T22:04:55.887Z,93.63
2022-10-18T22:07:25.553Z,94.13
2022-10-18T22:09:56.177Z,93.82
2022-10-18T22:12:27.264Z,94.06
2022-10-18T22:14:57.601Z,94.04
2022-10-18T22:17:27.528Z,94.11
2022-10-18T22:19:57.213Z,94.20
2022-10-18T22:22:26.952Z,94.14
2022-10-18T22:24:56.633Z,94.55
2022-10-18T22:27:26.348Z,94.12
2022-10-18T22:29:56.083Z,94.26
2022-10-18T22:32:25.897Z,94.08
2022-10-18T22:34:55.595Z,94.06
2022-10-18T22:37:25.387Z,94.07
2022-10-18T22:39:55.264Z,93.94
2022-10-18T22:42:25.019Z,94.37
2022-10-18T22:44:54.904Z,94.43
2022-10-18T22:47:25.378Z,94.53
2022-10-18T22:49:55.027Z,94.23
2022-10-18T22:52:24.760Z,94.32
2022-10-18T22:54:54.498Z,94.19
2022-10-18T22:57:24.205Z,94.25
2022-10-18T22:59:54.049Z,94.37
2022-10-18T23:02:24.794Z,94.57
2022-10-18T23:04:54.463Z,94.85
2022-10-18T23:07:24.265Z,94.95
2022-10-18T23:09:54.055Z,95.18
2022-10-18T23:12:23.763Z,95.23
2022-10-18T23:14:53.449Z,95.51
2022-10-18T23:17:23.153Z,95.55
2022-10-18T23:19:52.837Z,95.80
2022-10-18T23:22:22.584Z,95.80
2022-10-18T23:24:52.291Z,95.92
2022-10-18T23:27:21.988Z,96.06
2022-10-18T23:29:52.832Z,96.57
2022-10-18T23:32:22.530Z,96.96
2022-10-18T23:34:53.379Z,96.83
2022-10-18T23:37:23.445Z,96.80
2022-10-18T23:39:53.158Z,96.94
2022-10-18T23:42:22.858Z,97.01
2022-10-18T23:44:52.636Z,97.05
2022-10-18T23:47:22.400Z,96.97
2022-10-18T23:49:52.081Z,96.92
2022-10-18T23:52:21.763Z,96.87
2022-10-18T23:54:51.522Z,96.92
2022-10-18T23:57:21.277Z,96.95
2022-10-18T23:59:51.111Z,96.96
